createdAt,value
2019-02-19T00:01:36.596Z,99396.00
2019-02-19T00:03:41.645Z,99392.00
2019-02-19T00:05:46.913Z,99395.00
2019-02-19T00:07:52.264Z,99390.00
2019-02-19T00:09:57.222Z,99393.00
2019-02-19T00:12:02.697Z,99388.00
2019-02-19T00:14:07.927Z,99396.00
2019-02-19T00:16:13.274Z,99389.00
2019-02-19T00:18:18.497Z,99397.00
2019-02-19T00:20:23.851Z,99385.00
2019-02-19T00:22:29.461Z,99389.00
2019-02-19T00:24:34.511Z,99393.00
2019-02-19T00:26:39.752Z,99387.00
2019-02-19T00:28:45.522Z,99373.00
2019-02-19T00:30:50.820Z,99382.00
2019-02-19T00:32:56.157Z,99381.00
2019-02-19T00:35:01.036Z,99380.00
2019-02-19T00:37:06.163Z,99379.00
2019-02-19T00:39:11.275Z,99392.00
2019-02-19T00:41:16.462Z,99385.00
2019-02-19T00:43:31.523Z,99392.00
2019-02-19T00:45:36.698Z,99383.00
2019-02-19T00:47:41.657Z,99378.00
2019-02-19T00:49:46.992Z,99387.00
2019-02-19T00:51:52.187Z,99375.00
2019-02-19T00:53:57.611Z,99383.00
2019-02-19T00:56:02.644Z,99375.00
2019-02-19T00:58:07.996Z,99382.00
2019-02-19T01:00:14.539Z,99368.00
2019-02-19T01:02:19.857Z,99373.00
2019-02-19T01:04:25.629Z,99372.00
2019-02-19T01:06:30.696Z,99371.00
2019-02-19T01:08:36.443Z,99370.00
2019-02-19T01:10:41.897Z,99376.00
2019-02-19T01:12:47.084Z,99376.00
2019-02-19T01:14:52.210Z,99372.00
2019-02-19T01:16:57.312Z,99379.00
2019-02-19T01:19:02.379Z,99374.00
2019-02-19T01:21:07.374Z,99370.00
2019-02-19T01:23:13.030Z,99369.00
2019-02-19T01:25:18.682Z,99375.00
2019-02-19T01:27:23.788Z,99376.00
2019-02-19T01:29:28.801Z,99377.00
2019-02-19T01:31:34.054Z,99376.00
2019-02-19T01:33:39.025Z,99367.00
2019-02-19T01:35:43.921Z,99385.00
2019-02-19T01:37:49.128Z,99381.00
2019-02-19T01:39:54.089Z,99379.00
2019-02-19T01:41:58.983Z,99390.00
2019-02-19T01:44:04.352Z,99373.00
2019-02-19T01:46:09.805Z,99382.00
2019-02-19T01:48:15.170Z,99380.00
2019-02-19T01:50:20.444Z,99375.00
2019-02-19T01:52:25.683Z,99373.00
2019-02-19T01:54:30.776Z,99373.00
2019-02-19T01:56:35.811Z,99371.00
2019-02-19T01:58:41.132Z,99369.00
2019-02-19T02:00:47.425Z,99371.00
2019-02-19T02:02:55.995Z,99373.00
2019-02-19T02:05:06.495Z,99373.00
2019-02-19T02:07:14.641Z,99375.00
2019-02-19T02:09:25.536Z,99374.00
2019-02-19T02:11:31.535Z,99373.00
2019-02-19T02:13:36.864Z,99361.00
2019-02-19T02:15:42.885Z,99363.00
2019-02-19T02:17:47.911Z,99357.00
2019-02-19T02:19:53.761Z,99359.00
2019-02-19T02:21:58.941Z,99362.00
2019-02-19T02:24:03.986Z,99358.00
2019-02-19T02:26:08.934Z,99358.00
2019-02-19T02:28:14.473Z,99374.00
2019-02-19T02:30:19.753Z,99364.00
2019-02-19T02:32:25.055Z,99368.00
2019-02-19T02:34:30.516Z,99365.00
2019-02-19T02:36:35.792Z,99361.00
2019-02-19T02:38:40.680Z,99370.00
2019-02-19T02:40:45.756Z,99375.00
2019-02-19T02:42:50.942Z,99366.00
2019-02-19T02:44:55.847Z,99384.00
2019-02-19T02:47:01.157Z,99377.00
2019-02-19T02:49:06.519Z,99372.00
2019-02-19T02:51:11.574Z,99376.00
2019-02-19T02:53:16.624Z,99379.00
2019-02-19T02:55:21.873Z,99390.00
2019-02-19T02:57:27.637Z,99383.00
2019-02-19T02:59:32.903Z,99389.00
2019-02-19T03:01:39.527Z,99392.00
2019-02-19T03:03:44.565Z,99393.00
2019-02-19T03:06:20.698Z,99378.00
2019-02-19T03:08:25.574Z,99377.00
2019-02-19T03:10:31.134Z,99367.00
2019-02-19T03:12:37.186Z,99365.00
2019-02-19T03:14:42.434Z,99370.00
2019-02-19T03:16:48.048Z,99363.00
2019-02-19T03:18:53.610Z,99358.00
2019-02-19T03:20:58.627Z,99362.00
2019-02-19T03:23:03.858Z,99361.00
2019-02-19T03:25:09.028Z,99359.00
2019-02-19T03:27:14.097Z,99365.00
2019-02-19T03:29:18.999Z,99358.00
2019-02-19T03:31:23.906Z,99360.00
2019-02-19T03:33:32.098Z,99366.00
2019-02-19T03:35:37.249Z,99375.00
2019-02-19T03:37:42.601Z,99380.00
2019-02-19T03:39:47.603Z,99376.00
2019-02-19T03:41:53.220Z,99375.00
2019-02-19T03:43:58.137Z,99379.00
2019-02-19T03:46:11.784Z,99388.00
2019-02-19T03:48:10.692Z,99390.00
2019-02-19T03:50:15.965Z,99397.00
2019-02-19T03:52:21.029Z,99390.00
2019-02-19T03:54:26.372Z,99396.00
2019-02-19T03:56:31.455Z,99391.00
2019-02-19T03:58:36.923Z,99399.00
2019-02-19T04:00:41.987Z,99401.00
2019-02-19T04:02:47.401Z,99395.00
2019-02-19T04:04:52.798Z,99378.00
2019-02-19T04:06:57.747Z,99390.00
2019-02-19T04:09:04.484Z,99405.00
2019-02-19T04:11:09.439Z,99401.00
2019-02-19T04:13:14.788Z,99410.00
2019-02-19T04:15:20.793Z,99410.00
2019-02-19T04:17:26.139Z,99406.00
2019-02-19T04:19:31.548Z,99396.00
2019-02-19T04:21:36.713Z,99403.00
2019-02-19T04:23:42.043Z,99401.00
2019-02-19T04:25:47.462Z,99406.00
2019-02-19T04:27:52.675Z,99409.00
2019-02-19T04:29:57.979Z,99406.00
2019-02-19T04:32:02.884Z,99401.00
2019-02-19T04:34:08.191Z,99415.00
2019-02-19T04:36:13.462Z,99418.00
2019-02-19T04:38:18.489Z,99409.00
2019-02-19T04:40:23.782Z,99421.00
2019-02-19T04:42:28.802Z,99414.00
2019-02-19T04:44:34.061Z,99422.00
2019-02-19T04:46:39.053Z,99432.00
2019-02-19T04:48:44.019Z,99421.00
2019-02-19T04:50:49.053Z,99437.00
2019-02-19T04:52:54.668Z,99437.00
2019-02-19T04:54:59.819Z,99428.00
2019-02-19T04:57:05.223Z,99425.00
2019-02-19T04:59:10.521Z,99433.00
2019-02-19T05:01:15.897Z,99435.00
2019-02-19T05:03:20.870Z,99430.00
2019-02-19T05:05:26.292Z,99428.00
2019-02-19T05:07:31.469Z,99430.00
2019-02-19T05:09:36.409Z,99447.00
2019-02-19T05:11:41.878Z,99429.00
2019-02-19T05:13:46.941Z,99438.00
2019-02-19T05:15:53.308Z,99430.00
2019-02-19T05:17:59.973Z,99428.00
2019-02-19T05:20:06.145Z,99442.00
2019-02-19T05:22:11.119Z,99445.00
2019-02-19T05:24:16.383Z,99447.00
2019-02-19T05:26:21.309Z,99445.00
2019-02-19T05:28:26.617Z,99449.00
2019-02-19T05:30:32.008Z,99459.00
2019-02-19T05:32:37.235Z,99459.00
2019-02-19T05:34:42.744Z,99449.00
2019-02-19T05:36:48.044Z,99457.00
2019-02-19T05:38:52.938Z,99444.00
2019-02-19T05:40:57.928Z,99454.00
2019-02-19T05:43:02.825Z,99453.00
2019-02-19T05:45:08.346Z,99431.00
2019-02-19T05:47:13.568Z,99439.00
2019-02-19T05:49:18.825Z,99440.00
2019-02-19T05:51:24.119Z,99438.00
2019-02-19T05:53:29.335Z,99449.00
2019-02-19T05:55:34.695Z,99447.00
2019-02-19T05:57:39.681Z,99448.00
2019-02-19T05:59:44.885Z,99449.00
2019-02-19T06:01:50.133Z,99448.00
2019-02-19T06:03:55.030Z,99446.00
2019-02-19T06:06:00.668Z,99454.00
2019-02-19T06:08:05.565Z,99450.00
2019-02-19T06:10:12.373Z,99463.00
2019-02-19T06:12:17.308Z,99461.00
2019-02-19T06:14:22.607Z,99467.00
2019-02-19T06:16:27.892Z,99458.00
2019-02-19T06:18:33.025Z,99472.00
2019-02-19T06:20:37.922Z,99467.00
2019-02-19T06:22:43.351Z,99450.00
2019-02-19T06:24:48.242Z,99454.00
2019-02-19T06:26:53.335Z,99456.00
2019-02-19T06:28:58.296Z,99459.00
2019-02-19T06:31:03.454Z,99470.00
2019-02-19T06:33:08.768Z,99472.00
2019-02-19T06:35:13.984Z,99473.00
2019-02-19T06:37:19.010Z,99472.00
2019-02-19T06:39:23.987Z,99474.00
2019-02-19T06:41:29.391Z,99493.00
2019-02-19T06:43:34.376Z,99492.00
2019-02-19T06:45:39.324Z,99490.00
2019-02-19T06:47:44.261Z,99492.00
2019-02-19T06:49:49.583Z,99489.00
2019-02-19T06:51:54.760Z,99490.00
2019-02-19T06:53:59.994Z,99489.00
2019-02-19T06:56:05.085Z,99498.00
2019-02-19T06:58:10.005Z,99495.00
2019-02-19T07:00:15.521Z,99510.00
2019-02-19T07:02:54.829Z,99506.00
2019-02-19T07:05:02.132Z,99524.00
2019-02-19T07:07:07.120Z,99518.00
2019-02-19T07:09:12.035Z,99513.00
2019-02-19T07:11:17.345Z,99520.00
2019-02-19T07:13:22.717Z,99521.00
2019-02-19T07:15:27.760Z,99527.00
2019-02-19T07:17:32.763Z,99531.00
2019-02-19T07:19:38.276Z,99523.00
2019-02-19T07:21:43.196Z,99528.00
2019-02-19T07:23:48.098Z,99532.00
2019-02-19T07:25:53.143Z,99540.00
2019-02-19T07:27:59.047Z,99533.00
2019-02-19T07:30:04.672Z,99544.00
2019-02-19T07:32:09.826Z,99543.00
2019-02-19T07:34:15.052Z,99548.00
2019-02-19T07:36:20.052Z,99565.00
2019-02-19T07:38:25.579Z,99548.00
2019-02-19T07:40:30.818Z,99542.00
2019-02-19T07:42:36.398Z,99566.00
2019-02-19T07:44:41.718Z,99549.00
2019-02-19T07:46:47.025Z,99560.00
2019-02-19T07:48:52.296Z,99570.00
2019-02-19T07:50:57.601Z,99567.00
2019-02-19T07:53:02.625Z,99562.00
2019-02-19T07:55:07.805Z,99572.00
2019-02-19T07:57:13.015Z,99562.00
2019-02-19T07:59:18.189Z,99576.00
2019-02-19T08:01:23.724Z,99580.00
2019-02-19T08:03:29.210Z,99579.00
2019-02-19T08:05:34.249Z,99589.00
2019-02-19T08:07:39.286Z,99580.00
2019-02-19T08:09:44.179Z,99596.00
2019-02-19T08:11:49.811Z,99592.00
2019-02-19T08:13:56.253Z,99606.00
2019-02-19T08:16:01.516Z,99602.00
2019-02-19T08:18:06.649Z,99600.00
2019-02-19T08:20:15.908Z,99612.00
2019-02-19T08:22:18.914Z,99608.00
2019-02-19T08:24:24.170Z,99609.00
2019-02-19T08:26:29.643Z,99607.00
2019-02-19T08:28:36.214Z,99615.00
2019-02-19T08:30:41.540Z,99608.00
2019-02-19T08:32:46.598Z,99608.00
2019-02-19T08:34:51.644Z,99623.00
2019-02-19T08:36:57.050Z,99625.00
2019-02-19T08:39:02.972Z,99620.00
2019-02-19T08:41:08.171Z,99624.00
2019-02-19T08:43:13.409Z,99625.00
2019-02-19T08:45:18.588Z,99623.00
2019-02-19T08:47:23.915Z,99621.00
2019-02-19T08:49:29.284Z,99630.00
2019-02-19T08:51:34.279Z,99629.00
2019-02-19T08:53:39.595Z,99632.00
2019-02-19T08:55:45.140Z,99633.00
2019-02-19T08:57:50.123Z,99627.00
2019-02-19T08:59:55.762Z,99633.00
2019-02-19T09:02:00.679Z,99635.00
2019-02-19T09:04:05.785Z,99645.00
2019-02-19T09:06:10.782Z,99625.00
2019-02-19T09:08:15.980Z,99642.00
2019-02-19T09:10:20.948Z,99639.00
2019-02-19T09:12:25.985Z,99629.00
2019-02-19T09:14:31.054Z,99635.00
2019-02-19T09:16:36.370Z,99633.00
2019-02-19T09:18:41.330Z,99640.00
2019-02-19T09:20:46.585Z,99630.00
2019-02-19T09:22:51.836Z,99635.00
2019-02-19T09:24:57.187Z,99634.00
2019-02-19T09:27:02.081Z,99641.00
2019-02-19T09:29:06.989Z,99637.00
2019-02-19T09:31:12.244Z,99639.00
2019-02-19T09:33:17.943Z,99640.00
2019-02-19T09:35:23.276Z,99631.00
2019-02-19T09:37:28.706Z,99635.00
2019-02-19T09:39:33.624Z,99639.00
2019-02-19T09:41:38.688Z,99643.00
2019-02-19T09:43:44.872Z,99650.00
2019-02-19T09:45:49.994Z,99647.00
2019-02-19T09:48:01.232Z,99637.00
2019-02-19T09:50:02.522Z,99635.00
2019-02-19T09:52:07.787Z,99634.00
2019-02-19T09:54:12.702Z,99637.00
2019-02-19T09:56:17.691Z,99630.00
2019-02-19T09:58:22.848Z,99622.00
2019-02-19T10:00:28.278Z,99636.00
2019-02-19T10:02:33.546Z,99631.00
2019-02-19T10:04:38.795Z,99630.00
2019-02-19T10:06:44.154Z,99638.00
2019-02-19T10:08:49.707Z,99625.00
2019-02-19T10:10:55.149Z,99630.00
2019-02-19T10:13:00.233Z,99638.00
2019-02-19T10:15:06.004Z,99626.00
2019-02-19T10:17:16.017Z,99627.00
2019-02-19T10:19:21.217Z,99622.00
2019-02-19T10:21:26.474Z,99626.00
2019-02-19T10:23:31.954Z,99636.00
2019-02-19T10:25:37.232Z,99646.00
2019-02-19T10:27:42.203Z,99643.00
2019-02-19T10:29:47.215Z,99629.00
2019-02-19T10:31:52.979Z,99641.00
2019-02-19T10:33:58.199Z,99637.00
2019-02-19T10:36:03.465Z,99646.00
2019-02-19T10:38:08.722Z,99650.00
2019-02-19T10:40:15.307Z,99651.00
2019-02-19T10:42:20.260Z,99668.00
2019-02-19T10:44:25.301Z,99652.00
2019-02-19T10:46:30.570Z,99649.00
2019-02-19T10:48:35.821Z,99660.00
2019-02-19T10:50:41.390Z,99654.00
2019-02-19T10:52:46.316Z,99641.00
2019-02-19T10:54:51.528Z,99648.00
2019-02-19T10:56:56.743Z,99642.00
2019-02-19T10:59:01.818Z,99647.00
2019-02-19T11:01:07.360Z,99648.00
2019-02-19T11:03:12.709Z,99640.00
2019-02-19T11:05:18.247Z,99645.00
2019-02-19T11:07:23.291Z,99649.00
2019-02-19T11:09:28.887Z,99649.00
2019-02-19T11:11:33.861Z,99642.00
2019-02-19T11:13:38.749Z,99646.00
2019-02-19T11:15:44.281Z,99644.00
2019-02-19T11:17:49.722Z,99648.00
2019-02-19T11:19:54.883Z,99645.00
2019-02-19T11:22:00.227Z,99655.00
2019-02-19T11:24:05.781Z,99643.00
2019-02-19T11:26:11.034Z,99635.00
2019-02-19T11:28:16.178Z,99639.00
2019-02-19T11:30:21.482Z,99640.00
2019-02-19T11:32:26.755Z,99628.00
2019-02-19T11:34:32.074Z,99624.00
2019-02-19T11:36:37.502Z,99633.00
2019-02-19T11:38:42.833Z,99632.00
2019-02-19T11:40:48.033Z,99638.00
2019-02-19T11:42:53.285Z,99636.00
2019-02-19T11:44:58.374Z,99632.00
2019-02-19T11:47:03.404Z,99644.00
2019-02-19T11:49:08.656Z,99647.00
2019-02-19T11:51:13.970Z,99647.00
2019-02-19T11:53:19.004Z,99645.00
2019-02-19T11:55:24.124Z,99640.00
2019-02-19T11:57:29.178Z,99639.00
2019-02-19T11:59:34.313Z,99632.00
2019-02-19T12:01:39.297Z,99638.00
2019-02-19T12:03:44.615Z,99642.00
2019-02-19T12:05:49.593Z,99643.00
2019-02-19T12:07:54.826Z,99642.00
2019-02-19T12:10:00.482Z,99638.00
2019-02-19T12:12:05.717Z,99647.00
2019-02-19T12:14:10.723Z,99647.00
2019-02-19T12:16:16.051Z,99647.00
2019-02-19T12:18:21.132Z,99647.00
2019-02-19T12:20:26.131Z,99652.00
2019-02-19T12:22:31.127Z,99646.00
2019-02-19T12:24:36.484Z,99647.00
2019-02-19T12:27:00.641Z,99651.00
2019-02-19T12:29:05.800Z,99648.00
2019-02-19T12:31:11.251Z,99647.00
2019-02-19T12:33:16.517Z,99645.00
2019-02-19T12:35:21.695Z,99648.00
2019-02-19T12:37:26.643Z,99651.00
2019-02-19T12:39:31.675Z,99644.00
2019-02-19T12:41:36.728Z,99641.00
2019-02-19T12:43:41.736Z,99641.00
2019-02-19T12:45:46.640Z,99641.00
2019-02-19T12:47:52.206Z,99633.00
2019-02-19T12:51:53.440Z,99640.00
2019-02-19T12:53:58.356Z,99639.00
2019-02-19T12:56:03.496Z,99641.00
2019-02-19T12:58:08.739Z,99641.00
2019-02-19T13:00:16.191Z,99641.00
2019-02-19T13:02:21.301Z,99639.00
2019-02-19T13:04:26.403Z,99630.00
2019-02-19T13:06:31.373Z,99641.00
2019-02-19T13:08:36.382Z,99645.00
2019-02-19T13:10:41.706Z,99644.00
2019-02-19T13:12:46.770Z,99648.00
2019-02-19T13:14:51.756Z,99647.00
2019-02-19T13:16:57.067Z,99647.00
2019-02-19T13:19:03.749Z,99648.00
2019-02-19T13:21:08.873Z,99652.00
2019-02-19T13:23:13.848Z,99650.00
2019-02-19T13:25:18.996Z,99652.00
2019-02-19T13:27:24.062Z,99645.00
2019-02-19T13:29:29.058Z,99647.00
2019-02-19T13:31:34.186Z,99652.00
2019-02-19T13:33:39.552Z,99651.00
2019-02-19T13:35:44.813Z,99641.00
2019-02-19T13:37:50.298Z,99647.00
2019-02-19T13:39:55.309Z,99651.00
2019-02-19T13:42:00.359Z,99647.00
2019-02-19T13:44:05.839Z,99652.00
2019-02-19T13:46:11.258Z,99665.00
2019-02-19T13:48:16.521Z,99656.00
2019-02-19T13:50:22.102Z,99661.00
2019-02-19T13:52:55.336Z,99659.00
2019-02-19T13:55:05.887Z,99655.00
2019-02-19T13:57:11.411Z,99659.00
2019-02-19T13:59:16.769Z,99661.00
2019-02-19T14:01:22.048Z,99668.00
2019-02-19T14:03:27.489Z,99657.00
2019-02-19T14:05:32.744Z,99668.00
2019-02-19T14:07:37.854Z,99659.00
2019-02-19T14:09:43.349Z,99656.00
2019-02-19T14:11:48.357Z,99660.00
2019-02-19T14:14:18.517Z,99652.00
2019-02-19T14:16:28.414Z,99663.00
2019-02-19T14:18:53.913Z,99661.00
2019-02-19T14:21:16.873Z,99659.00
2019-02-19T14:23:40.208Z,99668.00
2019-02-19T14:26:13.621Z,99672.00
2019-02-19T14:28:39.048Z,99664.00
2019-02-19T14:31:13.376Z,99673.00
2019-02-19T14:33:26.145Z,99662.00
2019-02-19T14:35:40.743Z,99657.00
2019-02-19T14:37:58.578Z,99649.00
2019-02-19T14:40:32.105Z,99660.00
2019-02-19T14:42:45.076Z,99667.00
2019-02-19T14:45:09.222Z,99665.00
2019-02-19T14:47:26.841Z,99659.00
2019-02-19T14:49:49.821Z,99671.00
2019-02-19T14:52:19.912Z,99667.00
2019-02-19T14:54:43.855Z,99668.00
2019-02-19T14:57:04.012Z,99667.00
2019-02-19T14:59:25.248Z,99675.00
2019-02-19T15:02:01.614Z,99663.00
2019-02-19T15:04:24.899Z,99667.00
2019-02-19T15:06:51.971Z,99671.00
2019-02-19T15:09:15.858Z,99663.00
2019-02-19T15:11:36.096Z,99671.00
2019-02-19T15:14:03.869Z,99667.00
2019-02-19T15:16:29.801Z,99666.00
2019-02-19T15:18:47.467Z,99674.00
2019-02-19T15:21:10.400Z,99674.00
2019-02-19T15:23:43.286Z,99677.00
2019-02-19T15:26:05.947Z,99664.00
2019-02-19T15:28:17.848Z,99674.00
2019-02-19T15:30:35.289Z,99670.00
2019-02-19T15:33:02.535Z,99667.00
2019-02-19T15:35:28.483Z,99670.00
2019-02-19T15:37:59.357Z,99671.00
2019-02-19T15:40:22.299Z,99672.00
2019-02-19T15:42:42.972Z,99678.00
2019-02-19T15:45:07.275Z,99670.00
2019-02-19T15:47:22.213Z,99674.00
2019-02-19T15:49:57.584Z,99681.00
2019-02-19T15:52:13.049Z,99683.00
2019-02-19T15:54:35.212Z,99685.00
2019-02-19T15:56:58.584Z,99687.00
2019-02-19T15:59:14.989Z,99686.00
2019-02-19T16:01:54.961Z,99681.00
2019-02-19T16:04:07.675Z,99683.00
2019-02-19T16:06:47.145Z,99688.00
2019-02-19T16:09:15.507Z,99681.00
2019-02-19T16:11:36.879Z,99681.00
2019-02-19T16:13:55.850Z,99685.00
2019-02-19T16:16:19.264Z,99687.00
2019-02-19T16:18:39.533Z,99692.00
2019-02-19T16:21:03.199Z,99702.00
2019-02-19T16:23:23.962Z,99690.00
2019-02-19T16:26:00.787Z,99687.00
2019-02-19T16:28:26.316Z,99702.00
2019-02-19T16:30:49.278Z,99694.00
2019-02-19T16:33:12.131Z,99708.00
2019-02-19T16:35:36.880Z,99700.00
2019-02-19T16:37:46.632Z,99701.00
2019-02-19T16:40:05.917Z,99708.00
2019-02-19T16:42:24.021Z,99697.00
2019-02-19T16:44:45.510Z,99706.00
2019-02-19T16:46:56.946Z,99720.00
2019-02-19T16:49:16.108Z,99704.00
2019-02-19T16:51:39.381Z,99713.00
2019-02-19T16:54:06.175Z,99714.00
2019-02-19T16:56:17.794Z,99719.00
2019-02-19T16:58:49.900Z,99725.00
2019-02-19T17:01:11.536Z,99720.00
2019-02-19T17:03:30.073Z,99719.00
2019-02-19T17:05:42.506Z,99726.00
2019-02-19T17:08:06.761Z,99730.00
2019-02-19T17:10:30.827Z,99724.00
2019-02-19T17:13:13.281Z,99718.00
2019-02-19T17:15:34.913Z,99722.00
2019-02-19T17:17:58.813Z,99722.00
2019-02-19T17:20:26.176Z,99718.00
2019-02-19T17:22:45.618Z,99721.00
2019-02-19T17:25:12.502Z,99724.00
2019-02-19T17:27:29.916Z,99725.00
2019-02-19T17:30:00.243Z,99729.00
2019-02-19T17:32:36.826Z,99736.00
2019-02-19T17:34:50.842Z,99733.00
2019-02-19T17:37:17.311Z,99732.00
2019-02-19T17:39:37.599Z,99742.00
2019-02-19T17:41:57.785Z,99745.00
2019-02-19T17:44:20.073Z,99746.00
2019-02-19T17:46:50.525Z,99753.00
2019-02-19T17:49:01.049Z,99751.00
2019-02-19T17:51:30.912Z,99756.00
2019-02-19T17:53:52.006Z,99763.00
2019-02-19T17:56:14.946Z,99756.00
2019-02-19T17:58:28.880Z,99771.00
2019-02-19T18:00:44.472Z,99763.00
2019-02-19T18:02:57.696Z,99764.00
2019-02-19T18:05:21.503Z,99766.00
2019-02-19T18:10:21.348Z,99770.00
2019-02-19T18:12:54.659Z,99783.00
2019-02-19T18:15:18.876Z,99783.00
2019-02-19T18:17:35.116Z,99783.00
2019-02-19T18:19:40.137Z,99777.00
2019-02-19T18:21:45.443Z,99782.00
2019-02-19T18:23:50.731Z,99786.00
2019-02-19T18:25:55.740Z,99793.00
2019-02-19T18:28:00.656Z,99788.00
2019-02-19T18:30:06.855Z,99800.00
2019-02-19T18:32:12.130Z,99797.00
2019-02-19T18:34:17.131Z,99793.00
2019-02-19T18:36:22.256Z,99791.00
2019-02-19T18:38:27.181Z,99791.00
2019-02-19T18:40:32.472Z,99785.00
2019-02-19T18:42:37.603Z,99791.00
2019-02-19T18:44:42.590Z,99792.00
2019-02-19T18:46:48.047Z,99787.00
2019-02-19T18:48:53.445Z,99789.00
2019-02-19T18:50:58.869Z,99790.00
2019-02-19T18:53:04.273Z,99788.00
2019-02-19T18:55:09.492Z,99791.00
2019-02-19T18:57:14.990Z,99787.00
2019-02-19T18:59:20.349Z,99790.00
2019-02-19T19:01:25.418Z,99795.00
2019-02-19T19:03:30.750Z,99793.00
2019-02-19T19:05:35.757Z,99793.00
2019-02-19T19:07:41.007Z,99789.00
2019-02-19T19:09:46.313Z,99797.00
2019-02-19T19:12:10.545Z,99807.00
2019-02-19T19:14:16.279Z,99798.00
2019-02-19T19:16:21.545Z,99801.00
2019-02-19T19:18:26.544Z,99801.00
2019-02-19T19:20:31.929Z,99804.00
2019-02-19T19:22:37.210Z,99800.00
2019-02-19T19:24:42.203Z,99812.00
2019-02-19T19:26:47.402Z,99807.00
2019-02-19T19:28:52.747Z,99813.00
2019-02-19T19:30:58.018Z,99812.00
2019-02-19T19:33:04.082Z,99811.00
2019-02-19T19:35:10.273Z,99820.00
2019-02-19T19:37:15.197Z,99820.00
2019-02-19T19:39:20.768Z,99811.00
2019-02-19T19:41:25.763Z,99820.00
2019-02-19T19:43:30.779Z,99822.00
2019-02-19T19:45:36.103Z,99827.00
2019-02-19T19:47:41.808Z,99827.00
2019-02-19T19:49:46.820Z,99829.00
2019-02-19T19:51:51.913Z,99818.00
2019-02-19T19:53:56.913Z,99829.00
2019-02-19T19:56:02.917Z,99824.00
2019-02-19T19:58:07.898Z,99830.00
2019-02-19T20:00:13.228Z,99830.00
2019-02-19T20:02:19.958Z,99826.00
2019-02-19T20:04:25.208Z,99826.00
2019-02-19T20:06:30.138Z,99823.00
2019-02-19T20:08:35.792Z,99827.00
2019-02-19T20:10:41.557Z,99830.00
2019-02-19T20:12:47.432Z,99826.00
2019-02-19T20:14:53.002Z,99828.00
2019-02-19T20:16:58.240Z,99827.00
2019-02-19T20:19:03.586Z,99837.00
2019-02-19T20:21:09.208Z,99825.00
2019-02-19T20:23:14.862Z,99824.00
2019-02-19T20:25:21.314Z,99836.00
2019-02-19T20:27:27.000Z,99838.00
2019-02-19T20:29:32.773Z,99833.00
2019-02-19T20:31:38.403Z,99840.00
2019-02-19T20:33:43.693Z,99841.00
2019-02-19T20:35:48.998Z,99834.00
2019-02-19T20:37:54.367Z,99835.00
2019-02-19T20:40:00.385Z,99852.00
2019-02-19T20:42:06.894Z,99852.00
2019-02-19T20:44:12.182Z,99851.00
2019-02-19T20:46:17.893Z,99840.00
2019-02-19T20:48:24.077Z,99844.00
2019-02-19T20:50:29.730Z,99856.00
2019-02-19T20:52:35.062Z,99854.00
2019-02-19T20:54:40.741Z,99852.00
2019-02-19T20:56:46.456Z,99854.00
2019-02-19T20:58:51.578Z,99853.00
2019-02-19T21:00:56.484Z,99859.00
2019-02-19T21:03:01.754Z,99853.00
2019-02-19T21:05:08.053Z,99852.00
2019-02-19T21:07:13.452Z,99859.00
2019-02-19T21:09:18.474Z,99850.00
2019-02-19T21:11:24.211Z,99846.00
2019-02-19T21:13:29.478Z,99858.00
2019-02-19T21:15:34.467Z,99859.00
2019-02-19T21:17:39.550Z,99858.00
2019-02-19T21:19:44.821Z,99857.00
2019-02-19T21:21:49.779Z,99854.00
2019-02-19T21:23:55.177Z,99851.00
2019-02-19T21:26:00.485Z,99857.00
2019-02-19T21:28:06.160Z,99861.00
2019-02-19T21:30:12.648Z,99868.00
2019-02-19T21:32:17.624Z,99867.00
2019-02-19T21:34:22.829Z,99865.00
2019-02-19T21:36:27.863Z,99860.00
2019-02-19T21:38:33.166Z,99865.00
2019-02-19T21:40:38.222Z,99860.00
2019-02-19T21:42:43.764Z,99861.00
2019-02-19T21:44:48.737Z,99864.00
2019-02-19T21:46:53.963Z,99866.00
2019-02-19T21:48:59.211Z,99857.00
2019-02-19T21:51:04.180Z,99866.00
2019-02-19T21:53:09.661Z,99862.00
2019-02-19T21:55:15.125Z,99866.00
2019-02-19T21:57:21.027Z,99862.00
2019-02-19T21:59:26.378Z,99866.00
2019-02-19T22:01:31.661Z,99861.00
2019-02-19T22:03:36.674Z,99857.00
2019-02-19T22:05:41.698Z,99862.00
2019-02-19T22:07:47.038Z,99857.00
2019-02-19T22:09:52.015Z,99855.00
2019-02-19T22:11:57.288Z,99858.00
2019-02-19T22:14:02.309Z,99856.00
2019-02-19T22:16:07.793Z,99858.00
2019-02-19T22:18:12.770Z,99863.00
2019-02-19T22:20:55.102Z,99861.00
2019-02-19T22:23:00.355Z,99862.00
2019-02-19T22:25:05.728Z,99850.00
2019-02-19T22:27:10.872Z,99870.00
2019-02-19T22:29:16.047Z,99866.00
2019-02-19T22:31:21.273Z,99860.00
2019-02-19T22:33:26.333Z,99868.00
2019-02-19T22:35:31.356Z,99870.00
2019-02-19T22:37:36.332Z,99862.00
2019-02-19T22:39:41.683Z,99865.00
2019-02-19T22:41:46.751Z,99872.00
2019-02-19T22:43:52.337Z,99862.00
2019-02-19T22:45:57.990Z,99866.00
2019-02-19T22:48:03.232Z,99869.00
2019-02-19T22:50:08.975Z,99857.00
2019-02-19T22:52:14.334Z,99866.00
2019-02-19T22:54:37.289Z,99869.00
2019-02-19T22:56:44.738Z,99869.00
2019-02-19T22:58:49.712Z,99865.00
2019-02-19T23:01:12.218Z,99856.00
2019-02-19T23:03:18.735Z,99865.00
2019-02-19T23:05:23.766Z,99871.00
2019-02-19T23:07:28.803Z,99878.00
2019-02-19T23:09:34.374Z,99882.00
2019-02-19T23:11:39.919Z,99880.00
2019-02-19T23:13:45.147Z,99895.00
2019-02-19T23:15:50.546Z,99891.00
2019-02-19T23:17:55.757Z,99896.00
2019-02-19T23:20:01.491Z,99892.00
2019-02-19T23:22:06.489Z,99896.00
2019-02-19T23:24:12.215Z,99901.00
2019-02-19T23:26:17.226Z,99896.00
2019-02-19T23:28:22.583Z,99891.00
2019-02-19T23:30:27.637Z,99894.00
2019-02-19T23:32:32.626Z,99885.00
2019-02-19T23:34:37.621Z,99885.00
2019-02-19T23:36:51.887Z,99889.00
2019-02-19T23:38:56.813Z,99897.00
2019-02-19T23:41:02.211Z,99894.00
2019-02-19T23:43:07.203Z,99895.00
2019-02-19T23:45:12.604Z,99894.00
2019-02-19T23:47:17.756Z,99898.00
2019-02-19T23:49:22.766Z,99894.00
2019-02-19T23:51:28.067Z,99894.00
2019-02-19T23:53:32.961Z,99893.00
2019-02-19T23:55:37.953Z,99898.00
2019-02-19T23:57:43.342Z,99893.00
2019-02-19T23:59:48.269Z,99894.00
